sensor_id;sensor_type;location;lat;lon;timestamp;P1;durP1;ratioP1;P2;durP2;ratioP2
20375;SDS011;10347;51.828;6.466;2022-07-25T00:00:21;5.05;;;4.55;;
20375;SDS011;10347;51.828;6.466;2022-07-25T00:02:47;5.18;;;4.68;;
20375;SDS011;10347;51.828;6.466;2022-07-25T00:05:13;4.75;;;4.35;;
20375;SDS011;10347;51.828;6.466;2022-07-25T00:07:38;5.35;;;4.85;;
20375;SDS011;10347;51.828;6.466;2022-07-25T00:10:04;5.63;;;5.13;;
20375;SDS011;10347;51.828;6.466;2022-07-25T00:12:30;5.80;;;5.20;;
20375;SDS011;10347;51.828;6.466;2022-07-25T00:14:56;6.20;;;5.13;;
20375;SDS011;10347;51.828;6.466;2022-07-25T00:17:22;5.70;;;5.20;;
20375;SDS011;10347;51.828;6.466;2022-07-25T00:19:47;5.15;;;4.75;;
20375;SDS011;10347;51.828;6.466;2022-07-25T00:22:13;4.85;;;4.45;;
20375;SDS011;10347;51.828;6.466;2022-07-25T00:24:39;6.07;;;4.97;;
20375;SDS011;10347;51.828;6.466;2022-07-25T00:27:04;5.35;;;4.72;;
20375;SDS011;10347;51.828;6.466;2022-07-25T00:29:30;4.75;;;4.35;;
20375;SDS011;10347;51.828;6.466;2022-07-25T00:31:55;5.03;;;4.63;;
20375;SDS011;10347;51.828;6.466;2022-07-25T00:34:21;5.35;;;4.85;;
20375;SDS011;10347;51.828;6.466;2022-07-25T00:36:47;5.10;;;4.70;;
20375;SDS011;10347;51.828;6.466;2022-07-25T00:39:12;4.80;;;4.40;;
20375;SDS011;10347;51.828;6.466;2022-07-25T00:41:38;5.13;;;4.70;;
20375;SDS011;10347;51.828;6.466;2022-07-25T00:44:04;5.03;;;4.63;;
20375;SDS011;10347;51.828;6.466;2022-07-25T00:46:29;4.88;;;4.47;;
20375;SDS011;10347;51.828;6.466;2022-07-25T00:48:55;5.07;;;4.65;;
20375;SDS011;10347;51.828;6.466;2022-07-25T00:51:21;5.70;;;5.20;;
20375;SDS011;10347;51.828;6.466;2022-07-25T00:53:47;6.15;;;4.55;;
20375;SDS011;10347;51.828;6.466;2022-07-25T00:56:13;5.75;;;5.05;;
20375;SDS011;10347;51.828;6.466;2022-07-25T00:58:39;6.00;;;4.68;;
20375;SDS011;10347;51.828;6.466;2022-07-25T01:01:05;6.25;;;5.65;;
20375;SDS011;10347;51.828;6.466;2022-07-25T01:03:30;6.68;;;5.60;;
20375;SDS011;10347;51.828;6.466;2022-07-25T01:05:56;5.88;;;5.10;;
20375;SDS011;10347;51.828;6.466;2022-07-25T01:08:22;5.45;;;4.95;;
20375;SDS011;10347;51.828;6.466;2022-07-25T01:10:48;5.63;;;5.18;;
20375;SDS011;10347;51.828;6.466;2022-07-25T01:13:13;5.32;;;4.93;;
20375;SDS011;10347;51.828;6.466;2022-07-25T01:15:39;5.82;;;5.32;;
20375;SDS011;10347;51.828;6.466;2022-07-25T01:18:07;5.22;;;4.72;;
20375;SDS011;10347;51.828;6.466;2022-07-25T01:20:33;5.80;;;5.30;;
20375;SDS011;10347;51.828;6.466;2022-07-25T01:22:59;5.22;;;4.82;;
20375;SDS011;10347;51.828;6.466;2022-07-25T01:25:25;5.70;;;5.20;;
20375;SDS011;10347;51.828;6.466;2022-07-25T01:27:52;6.47;;;5.15;;
20375;SDS011;10347;51.828;6.466;2022-07-25T01:30:19;6.38;;;5.80;;
20375;SDS011;10347;51.828;6.466;2022-07-25T01:32:46;5.50;;;5.00;;
20375;SDS011;10347;51.828;6.466;2022-07-25T01:35:13;5.80;;;5.30;;
20375;SDS011;10347;51.828;6.466;2022-07-25T01:37:39;5.53;;;5.03;;
20375;SDS011;10347;51.828;6.466;2022-07-25T01:40:05;6.88;;;6.00;;
20375;SDS011;10347;51.828;6.466;2022-07-25T01:42:32;5.93;;;5.43;;
20375;SDS011;10347;51.828;6.466;2022-07-25T01:45:01;6.00;;;5.40;;
20375;SDS011;10347;51.828;6.466;2022-07-25T01:47:27;6.47;;;5.88;;
20375;SDS011;10347;51.828;6.466;2022-07-25T01:49:53;7.03;;;6.32;;
20375;SDS011;10347;51.828;6.466;2022-07-25T01:52:19;6.13;;;5.57;;
20375;SDS011;10347;51.828;6.466;2022-07-25T01:54:44;6.50;;;5.90;;
20375;SDS011;10347;51.828;6.466;2022-07-25T01:57:10;5.65;;;5.15;;
20375;SDS011;10347;51.828;6.466;2022-07-25T01:59:36;6.22;;;5.72;;
20375;SDS011;10347;51.828;6.466;2022-07-25T02:02:06;6.30;;;5.70;;
20375;SDS011;10347;51.828;6.466;2022-07-25T02:04:32;6.82;;;5.68;;
20375;SDS011;10347;51.828;6.466;2022-07-25T02:06:59;7.80;;;6.40;;
20375;SDS011;10347;51.828;6.466;2022-07-25T02:09:25;6.68;;;5.97;;
20375;SDS011;10347;51.828;6.466;2022-07-25T02:11:50;6.45;;;5.82;;
20375;SDS011;10347;51.828;6.466;2022-07-25T02:14:16;6.97;;;6.28;;
20375;SDS011;10347;51.828;6.466;2022-07-25T02:16:42;6.85;;;6.25;;
20375;SDS011;10347;51.828;6.466;2022-07-25T02:19:07;6.30;;;5.70;;
20375;SDS011;10347;51.828;6.466;2022-07-25T02:21:33;6.70;;;6.10;;
20375;SDS011;10347;51.828;6.466;2022-07-25T02:23:59;7.80;;;6.45;;
20375;SDS011;10347;51.828;6.466;2022-07-25T02:26:24;7.97;;;6.13;;
20375;SDS011;10347;51.828;6.466;2022-07-25T02:28:50;7.40;;;6.28;;
20375;SDS011;10347;51.828;6.466;2022-07-25T02:31:16;7.00;;;6.32;;
20375;SDS011;10347;51.828;6.466;2022-07-25T02:33:41;6.22;;;5.63;;
20375;SDS011;10347;51.828;6.466;2022-07-25T02:36:07;7.25;;;6.00;;
20375;SDS011;10347;51.828;6.466;2022-07-25T02:38:34;6.72;;;6.13;;
20375;SDS011;10347;51.828;6.466;2022-07-25T02:40:59;8.00;;;7.05;;
20375;SDS011;10347;51.828;6.466;2022-07-25T02:43:25;7.38;;;6.65;;
20375;SDS011;10347;51.828;6.466;2022-07-25T02:45:51;6.80;;;6.10;;
20375;SDS011;10347;51.828;6.466;2022-07-25T02:48:17;7.50;;;6.30;;
20375;SDS011;10347;51.828;6.466;2022-07-25T02:50:42;7.55;;;5.90;;
20375;SDS011;10347;51.828;6.466;2022-07-25T02:53:08;7.18;;;6.47;;
20375;SDS011;10347;51.828;6.466;2022-07-25T02:55:34;7.68;;;6.40;;
20375;SDS011;10347;51.828;6.466;2022-07-25T02:57:59;7.00;;;6.40;;
20375;SDS011;10347;51.828;6.466;2022-07-25T03:00:25;7.20;;;6.50;;
20375;SDS011;10347;51.828;6.466;2022-07-25T03:02:51;8.55;;;6.78;;
20375;SDS011;10347;51.828;6.466;2022-07-25T03:05:16;6.07;;;5.57;;
20375;SDS011;10347;51.828;6.466;2022-07-25T03:07:43;7.45;;;6.30;;
20375;SDS011;10347;51.828;6.466;2022-07-25T03:10:09;6.55;;;5.95;;
20375;SDS011;10347;51.828;6.466;2022-07-25T03:12:36;6.85;;;6.20;;
20375;SDS011;10347;51.828;6.466;2022-07-25T03:15:02;6.53;;;5.80;;
20375;SDS011;10347;51.828;6.466;2022-07-25T03:17:29;7.07;;;6.38;;
20375;SDS011;10347;51.828;6.466;2022-07-25T03:19:55;7.80;;;6.55;;
20375;SDS011;10347;51.828;6.466;2022-07-25T03:22:21;7.10;;;6.40;;
20375;SDS011;10347;51.828;6.466;2022-07-25T03:24:47;6.40;;;5.80;;
20375;SDS011;10347;51.828;6.466;2022-07-25T03:27:12;7.07;;;6.30;;
20375;SDS011;10347;51.828;6.466;2022-07-25T03:29:39;6.97;;;6.28;;
20375;SDS011;10347;51.828;6.466;2022-07-25T03:32:05;7.85;;;6.07;;
20375;SDS011;10347;51.828;6.466;2022-07-25T03:34:31;6.55;;;5.95;;
20375;SDS011;10347;51.828;6.466;2022-07-25T03:36:57;7.15;;;5.82;;
20375;SDS011;10347;51.828;6.466;2022-07-25T03:39:24;6.47;;;5.82;;
20375;SDS011;10347;51.828;6.466;2022-07-25T03:41:50;6.28;;;5.68;;
20375;SDS011;10347;51.828;6.466;2022-07-25T03:44:16;6.32;;;5.70;;
20375;SDS011;10347;51.828;6.466;2022-07-25T03:46:43;6.60;;;6.00;;
20375;SDS011;10347;51.828;6.466;2022-07-25T03:49:08;6.32;;;5.80;;
20375;SDS011;10347;51.828;6.466;2022-07-25T03:51:34;6.75;;;5.35;;
20375;SDS011;10347;51.828;6.466;2022-07-25T03:54:00;6.13;;;5.53;;
20375;SDS011;10347;51.828;6.466;2022-07-25T03:56:30;6.80;;;6.10;;
20375;SDS011;10347;51.828;6.466;2022-07-25T03:58:55;6.38;;;5.60;;
20375;SDS011;10347;51.828;6.466;2022-07-25T04:01:21;9.65;;;6.43;;
20375;SDS011;10347;51.828;6.466;2022-07-25T04:03:47;6.40;;;5.80;;
20375;SDS011;10347;51.828;6.466;2022-07-25T04:06:12;6.95;;;5.78;;
20375;SDS011;10347;51.828;6.466;2022-07-25T04:08:38;6.00;;;5.50;;
20375;SDS011;10347;51.828;6.466;2022-07-25T04:11:04;6.65;;;5.30;;
20375;SDS011;10347;51.828;6.466;2022-07-25T04:13:29;6.35;;;5.75;;
20375;SDS011;10347;51.828;6.466;2022-07-25T04:15:55;7.03;;;5.70;;
20375;SDS011;10347;51.828;6.466;2022-07-25T04:18:21;6.20;;;5.60;;
20375;SDS011;10347;51.828;6.466;2022-07-25T04:20:46;6.93;;;5.88;;
20375;SDS011;10347;51.828;6.466;2022-07-25T04:23:12;5.82;;;5.32;;
20375;SDS011;10347;51.828;6.466;2022-07-25T04:25:38;5.93;;;5.40;;
20375;SDS011;10347;51.828;6.466;2022-07-25T04:28:03;6.80;;;6.20;;
20375;SDS011;10347;51.828;6.466;2022-07-25T04:30:29;6.60;;;5.82;;
20375;SDS011;10347;51.828;6.466;2022-07-25T04:32:55;5.93;;;5.32;;
20375;SDS011;10347;51.828;6.466;2022-07-25T04:35:20;7.50;;;5.93;;
20375;SDS011;10347;51.828;6.466;2022-07-25T04:37:46;9.30;;;6.63;;
20375;SDS011;10347;51.828;6.466;2022-07-25T04:40:12;7.85;;;5.53;;
20375;SDS011;10347;51.828;6.466;2022-07-25T04:42:38;6.88;;;5.78;;
20375;SDS011;10347;51.828;6.466;2022-07-25T04:45:03;6.57;;;5.82;;
20375;SDS011;10347;51.828;6.466;2022-07-25T04:47:29;8.68;;;6.90;;
20375;SDS011;10347;51.828;6.466;2022-07-25T04:49:55;6.82;;;5.95;;
20375;SDS011;10347;51.828;6.466;2022-07-25T04:52:20;5.78;;;5.22;;
20375;SDS011;10347;51.828;6.466;2022-07-25T04:54:46;7.82;;;5.53;;
20375;SDS011;10347;51.828;6.466;2022-07-25T04:57:12;6.65;;;5.30;;
20375;SDS011;10347;51.828;6.466;2022-07-25T04:59:37;7.40;;;5.53;;
20375;SDS011;10347;51.828;6.466;2022-07-25T05:02:03;6.75;;;6.03;;
20375;SDS011;10347;51.828;6.466;2022-07-25T05:04:29;8.55;;;5.85;;
20375;SDS011;10347;51.828;6.466;2022-07-25T05:06:54;7.05;;;6.18;;
20375;SDS011;10347;51.828;6.466;2022-07-25T05:09:20;8.75;;;5.57;;
20375;SDS011;10347;51.828;6.466;2022-07-25T05:11:46;7.50;;;5.50;;
20375;SDS011;10347;51.828;6.466;2022-07-25T05:14:11;5.85;;;5.25;;
20375;SDS011;10347;51.828;6.466;2022-07-25T05:16:37;6.28;;;5.68;;
20375;SDS011;10347;51.828;6.466;2022-07-25T05:19:02;5.05;;;4.65;;
20375;SDS011;10347;51.828;6.466;2022-07-25T05:21:28;6.60;;;5.20;;
20375;SDS011;10347;51.828;6.466;2022-07-25T05:23:54;5.80;;;5.30;;
20375;SDS011;10347;51.828;6.466;2022-07-25T05:26:19;6.28;;;5.32;;
20375;SDS011;10347;51.828;6.466;2022-07-25T05:28:45;8.60;;;5.90;;
20375;SDS011;10347;51.828;6.466;2022-07-25T05:31:11;5.75;;;5.07;;
20375;SDS011;10347;51.828;6.466;2022-07-25T05:33:36;8.68;;;5.20;;
20375;SDS011;10347;51.828;6.466;2022-07-25T05:36:02;7.75;;;5.57;;
20375;SDS011;10347;51.828;6.466;2022-07-25T05:38:29;6.90;;;5.82;;
20375;SDS011;10347;51.828;6.466;2022-07-25T05:40:54;6.18;;;5.57;;
20375;SDS011;10347;51.828;6.466;2022-07-25T05:43:20;8.23;;;5.88;;
20375;SDS011;10347;51.828;6.466;2022-07-25T05:45:46;5.50;;;5.00;;
20375;SDS011;10347;51.828;6.466;2022-07-25T05:48:12;7.38;;;5.40;;
20375;SDS011;10347;51.828;6.466;2022-07-25T05:50:38;7.55;;;5.38;;
20375;SDS011;10347;51.828;6.466;2022-07-25T05:53:04;5.65;;;5.07;;
20375;SDS011;10347;51.828;6.466;2022-07-25T05:55:30;6.10;;;5.28;;
20375;SDS011;10347;51.828;6.466;2022-07-25T05:57:56;6.88;;;5.53;;
20375;SDS011;10347;51.828;6.466;2022-07-25T06:00:22;7.13;;;5.13;;
20375;SDS011;10347;51.828;6.466;2022-07-25T06:02:48;5.60;;;5.10;;
20375;SDS011;10347;51.828;6.466;2022-07-25T06:05:13;7.28;;;5.43;;
20375;SDS011;10347;51.828;6.466;2022-07-25T06:07:39;6.93;;;5.20;;
20375;SDS011;10347;51.828;6.466;2022-07-25T06:10:05;6.55;;;5.75;;
20375;SDS011;10347;51.828;6.466;2022-07-25T06:12:31;5.53;;;5.03;;
20375;SDS011;10347;51.828;6.466;2022-07-25T06:14:57;6.80;;;5.70;;
20375;SDS011;10347;51.828;6.466;2022-07-25T06:17:24;6.45;;;5.32;;
20375;SDS011;10347;51.828;6.466;2022-07-25T06:19:49;5.07;;;4.57;;
20375;SDS011;10347;51.828;6.466;2022-07-25T06:22:15;6.20;;;4.57;;
20375;SDS011;10347;51.828;6.466;2022-07-25T06:24:40;6.20;;;4.53;;
20375;SDS011;10347;51.828;6.466;2022-07-25T06:27:06;5.22;;;4.65;;
20375;SDS011;10347;51.828;6.466;2022-07-25T06:29:36;5.80;;;5.20;;
20375;SDS011;10347;51.828;6.466;2022-07-25T06:32:02;6.90;;;4.97;;
20375;SDS011;10347;51.828;6.466;2022-07-25T06:34:28;5.45;;;4.95;;
20375;SDS011;10347;51.828;6.466;2022-07-25T06:36:53;5.93;;;4.75;;
20375;SDS011;10347;51.828;6.466;2022-07-25T06:39:19;4.68;;;4.28;;
20375;SDS011;10347;51.828;6.466;2022-07-25T06:41:44;5.75;;;4.47;;
20375;SDS011;10347;51.828;6.466;2022-07-25T06:44:10;8.38;;;5.03;;
20375;SDS011;10347;51.828;6.466;2022-07-25T06:46:35;5.63;;;4.97;;
20375;SDS011;10347;51.828;6.466;2022-07-25T06:49:01;8.23;;;5.20;;
20375;SDS011;10347;51.828;6.466;2022-07-25T06:51:26;5.45;;;4.70;;
20375;SDS011;10347;51.828;6.466;2022-07-25T06:53:52;5.30;;;4.80;;
20375;SDS011;10347;51.828;6.466;2022-07-25T06:56:18;7.28;;;4.50;;
20375;SDS011;10347;51.828;6.466;2022-07-25T06:58:43;4.70;;;4.28;;
20375;SDS011;10347;51.828;6.466;2022-07-25T07:01:09;4.60;;;4.10;;
20375;SDS011;10347;51.828;6.466;2022-07-25T07:03:35;4.30;;;3.80;;
20375;SDS011;10347;51.828;6.466;2022-07-25T07:06:05;6.95;;;4.45;;
20375;SDS011;10347;51.828;6.466;2022-07-25T07:08:33;5.60;;;4.63;;
20375;SDS011;10347;51.828;6.466;2022-07-25T07:10:58;5.68;;;4.90;;
20375;SDS011;10347;51.828;6.466;2022-07-25T07:13:24;6.18;;;5.00;;
20375;SDS011;10347;51.828;6.466;2022-07-25T07:15:50;5.43;;;4.45;;
20375;SDS011;10347;51.828;6.466;2022-07-25T07:18:16;6.95;;;4.82;;
20375;SDS011;10347;51.828;6.466;2022-07-25T07:20:42;4.90;;;4.38;;
20375;SDS011;10347;51.828;6.466;2022-07-25T07:23:08;5.22;;;4.50;;
20375;SDS011;10347;51.828;6.466;2022-07-25T07:25:33;5.15;;;4.63;;
20375;SDS011;10347;51.828;6.466;2022-07-25T07:27:59;9.48;;;4.90;;
20375;SDS011;10347;51.828;6.466;2022-07-25T07:30:25;5.75;;;4.55;;
20375;SDS011;10347;51.828;6.466;2022-07-25T07:32:50;5.40;;;4.82;;
20375;SDS011;10347;51.828;6.466;2022-07-25T07:35:16;5.47;;;4.72;;
20375;SDS011;10347;51.828;6.466;2022-07-25T07:37:43;5.38;;;4.88;;
20375;SDS011;10347;51.828;6.466;2022-07-25T07:40:11;5.10;;;4.63;;
20375;SDS011;10347;51.828;6.466;2022-07-25T07:42:38;6.43;;;4.80;;
20375;SDS011;10347;51.828;6.466;2022-07-25T07:47:38;6.10;;;5.50;;
20375;SDS011;10347;51.828;6.466;2022-07-25T07:50:03;6.20;;;5.57;;
20375;SDS011;10347;51.828;6.466;2022-07-25T07:52:30;7.55;;;5.65;;
20375;SDS011;10347;51.828;6.466;2022-07-25T07:54:55;8.38;;;5.60;;
20375;SDS011;10347;51.828;6.466;2022-07-25T07:57:40;6.72;;;4.88;;
20375;SDS011;10347;51.828;6.466;2022-07-25T08:00:05;7.65;;;5.57;;
20375;SDS011;10347;51.828;6.466;2022-07-25T08:02:31;7.32;;;5.47;;
20375;SDS011;10347;51.828;6.466;2022-07-25T08:05:05;6.70;;;5.45;;
20375;SDS011;10347;51.828;6.466;2022-07-25T08:07:32;7.25;;;5.07;;
20375;SDS011;10347;51.828;6.466;2022-07-25T08:09:57;6.45;;;5.15;;
20375;SDS011;10347;51.828;6.466;2022-07-25T08:12:23;7.05;;;5.03;;
20375;SDS011;10347;51.828;6.466;2022-07-25T08:14:48;9.77;;;6.05;;
20375;SDS011;10347;51.828;6.466;2022-07-25T08:17:14;9.82;;;5.78;;
20375;SDS011;10347;51.828;6.466;2022-07-25T08:19:39;6.13;;;4.97;;
20375;SDS011;10347;51.828;6.466;2022-07-25T08:22:05;5.40;;;4.80;;
20375;SDS011;10347;51.828;6.466;2022-07-25T08:24:30;8.38;;;5.15;;
20375;SDS011;10347;51.828;6.466;2022-07-25T08:26:56;5.22;;;4.70;;
20375;SDS011;10347;51.828;6.466;2022-07-25T08:29:21;7.63;;;4.97;;
20375;SDS011;10347;51.828;6.466;2022-07-25T08:31:47;5.80;;;4.50;;
20375;SDS011;10347;51.828;6.466;2022-07-25T08:34:13;5.78;;;5.10;;
20375;SDS011;10347;51.828;6.466;2022-07-25T08:36:38;4.72;;;4.30;;
20375;SDS011;10347;51.828;6.466;2022-07-25T08:39:04;6.60;;;4.47;;
20375;SDS011;10347;51.828;6.466;2022-07-25T08:41:29;5.45;;;4.05;;
20375;SDS011;10347;51.828;6.466;2022-07-25T08:43:57;6.07;;;4.45;;
20375;SDS011;10347;51.828;6.466;2022-07-25T08:46:23;4.82;;;4.38;;
20375;SDS011;10347;51.828;6.466;2022-07-25T08:48:49;7.45;;;4.30;;
20375;SDS011;10347;51.828;6.466;2022-07-25T08:51:16;4.00;;;3.65;;
20375;SDS011;10347;51.828;6.466;2022-07-25T08:53:42;5.43;;;4.03;;
20375;SDS011;10347;51.828;6.466;2022-07-25T08:56:08;3.72;;;3.42;;
20375;SDS011;10347;51.828;6.466;2022-07-25T08:58:34;3.97;;;3.67;;
20375;SDS011;10347;51.828;6.466;2022-07-25T09:01:01;6.82;;;3.03;;
20375;SDS011;10347;51.828;6.466;2022-07-25T09:03:26;3.63;;;3.33;;
20375;SDS011;10347;51.828;6.466;2022-07-25T09:05:52;4.70;;;3.20;;
20375;SDS011;10347;51.828;6.466;2022-07-25T09:08:18;4.82;;;2.80;;
20375;SDS011;10347;51.828;6.466;2022-07-25T09:10:44;3.97;;;2.65;;
20375;SDS011;10347;51.828;6.466;2022-07-25T09:13:17;4.30;;;2.63;;
20375;SDS011;10347;51.828;6.466;2022-07-25T09:15:45;2.88;;;2.38;;
20375;SDS011;10347;51.828;6.466;2022-07-25T09:18:13;2.00;;;1.90;;
20375;SDS011;10347;51.828;6.466;2022-07-25T09:20:45;2.47;;;2.28;;
20375;SDS011;10347;51.828;6.466;2022-07-25T09:23:12;4.13;;;2.40;;
20375;SDS011;10347;51.828;6.466;2022-07-25T09:25:39;2.97;;;2.10;;
20375;SDS011;10347;51.828;6.466;2022-07-25T09:28:09;2.33;;;2.13;;
20375;SDS011;10347;51.828;6.466;2022-07-25T09:30:52;2.00;;;1.90;;
20375;SDS011;10347;51.828;6.466;2022-07-25T09:33:19;2.28;;;1.92;;
20375;SDS011;10347;51.828;6.466;2022-07-25T09:35:50;2.30;;;2.20;;
20375;SDS011;10347;51.828;6.466;2022-07-25T09:38:17;2.50;;;1.88;;
20375;SDS011;10347;51.828;6.466;2022-07-25T09:46:02;3.88;;;2.53;;
20375;SDS011;10347;51.828;6.466;2022-07-25T09:48:28;2.85;;;2.33;;
20375;SDS011;10347;51.828;6.466;2022-07-25T09:50:53;3.72;;;2.60;;
20375;SDS011;10347;51.828;6.466;2022-07-25T09:53:19;2.30;;;2.20;;
20375;SDS011;10347;51.828;6.466;2022-07-25T09:55:45;2.35;;;2.15;;
20375;SDS011;10347;51.828;6.466;2022-07-25T09:58:11;2.42;;;2.22;;
20375;SDS011;10347;51.828;6.466;2022-07-25T10:00:38;3.13;;;2.28;;
20375;SDS011;10347;51.828;6.466;2022-07-25T10:08:28;2.80;;;2.60;;
20375;SDS011;10347;51.828;6.466;2022-07-25T10:10:58;2.90;;;1.90;;
20375;SDS011;10347;51.828;6.466;2022-07-25T10:13:28;3.40;;;1.98;;
20375;SDS011;10347;51.828;6.466;2022-07-25T10:15:55;2.28;;;1.95;;
20375;SDS011;10347;51.828;6.466;2022-07-25T10:18:22;1.73;;;1.63;;
20375;SDS011;10347;51.828;6.466;2022-07-25T10:21:07;1.92;;;1.70;;
20375;SDS011;10347;51.828;6.466;2022-07-25T10:23:34;1.92;;;1.65;;
20375;SDS011;10347;51.828;6.466;2022-07-25T10:28:36;1.10;;;1.10;;
20375;SDS011;10347;51.828;6.466;2022-07-25T10:33:40;2.53;;;1.45;;
20375;SDS011;10347;51.828;6.466;2022-07-25T10:36:06;4.18;;;1.20;;
20375;SDS011;10347;51.828;6.466;2022-07-25T10:38:32;1.08;;;1.08;;
20375;SDS011;10347;51.828;6.466;2022-07-25T10:41:01;1.25;;;1.15;;
20375;SDS011;10347;51.828;6.466;2022-07-25T10:43:28;2.42;;;1.65;;
20375;SDS011;10347;51.828;6.466;2022-07-25T10:46:09;1.15;;;1.10;;
20375;SDS011;10347;51.828;6.466;2022-07-25T10:48:37;1.83;;;1.13;;
20375;SDS011;10347;51.828;6.466;2022-07-25T10:51:04;2.08;;;1.40;;
20375;SDS011;10347;51.828;6.466;2022-07-25T10:53:33;1.33;;;1.20;;
20375;SDS011;10347;51.828;6.466;2022-07-25T10:56:09;1.58;;;1.20;;
20375;SDS011;10347;51.828;6.466;2022-07-25T11:01:22;2.20;;;1.20;;
20375;SDS011;10347;51.828;6.466;2022-07-25T11:03:53;2.88;;;1.30;;
20375;SDS011;10347;51.828;6.466;2022-07-25T11:06:35;1.52;;;1.23;;
20375;SDS011;10347;51.828;6.466;2022-07-25T11:09:16;3.72;;;1.42;;
20375;SDS011;10347;51.828;6.466;2022-07-25T11:11:43;2.00;;;1.20;;
20375;SDS011;10347;51.828;6.466;2022-07-25T11:14:13;4.25;;;1.20;;
20375;SDS011;10347;51.828;6.466;2022-07-25T11:20:20;3.53;;;1.63;;
20375;SDS011;10347;51.828;6.466;2022-07-25T11:22:40;2.05;;;1.40;;
20375;SDS011;10347;51.828;6.466;2022-07-25T11:25:09;2.85;;;1.80;;
20375;SDS011;10347;51.828;6.466;2022-07-25T11:27:38;2.15;;;1.33;;
20375;SDS011;10347;51.828;6.466;2022-07-25T11:30:11;2.33;;;1.35;;
20375;SDS011;10347;51.828;6.466;2022-07-25T11:32:40;2.80;;;1.48;;
20375;SDS011;10347;51.828;6.466;2022-07-25T11:35:06;4.65;;;1.50;;
20375;SDS011;10347;51.828;6.466;2022-07-25T11:37:32;2.42;;;1.20;;
20375;SDS011;10347;51.828;6.466;2022-07-25T11:40:01;3.00;;;1.10;;
20375;SDS011;10347;51.828;6.466;2022-07-25T11:42:37;4.25;;;1.50;;
20375;SDS011;10347;51.828;6.466;2022-07-25T11:45:20;1.63;;;1.52;;
20375;SDS011;10347;51.828;6.466;2022-07-25T11:47:49;1.50;;;1.40;;
20375;SDS011;10347;51.828;6.466;2022-07-25T11:50:36;5.03;;;1.20;;
20375;SDS011;10347;51.828;6.466;2022-07-25T11:53:04;3.38;;;1.33;;
20375;SDS011;10347;51.828;6.466;2022-07-25T11:55:31;4.03;;;1.17;;
20375;SDS011;10347;51.828;6.466;2022-07-25T11:58:04;1.58;;;1.33;;
20375;SDS011;10347;51.828;6.466;2022-07-25T12:00:34;1.38;;;1.27;;
20375;SDS011;10347;51.828;6.466;2022-07-25T12:03:07;1.75;;;1.50;;
20375;SDS011;10347;51.828;6.466;2022-07-25T12:05:34;3.00;;;1.30;;
20375;SDS011;10347;51.828;6.466;2022-07-25T12:08:07;1.90;;;1.20;;
20375;SDS011;10347;51.828;6.466;2022-07-25T12:10:40;3.25;;;1.40;;
20375;SDS011;10347;51.828;6.466;2022-07-25T12:13:20;4.53;;;1.63;;
20375;SDS011;10347;51.828;6.466;2022-07-25T12:15:48;3.40;;;1.60;;
20375;SDS011;10347;51.828;6.466;2022-07-25T12:18:13;2.42;;;1.58;;
20375;SDS011;10347;51.828;6.466;2022-07-25T12:20:40;2.25;;;1.63;;
20375;SDS011;10347;51.828;6.466;2022-07-25T12:23:08;3.28;;;1.42;;
20375;SDS011;10347;51.828;6.466;2022-07-25T12:25:39;5.45;;;1.80;;
20375;SDS011;10347;51.828;6.466;2022-07-25T12:28:06;3.15;;;1.77;;
20375;SDS011;10347;51.828;6.466;2022-07-25T12:30:34;2.00;;;1.80;;
20375;SDS011;10347;51.828;6.466;2022-07-25T12:32:59;3.35;;;1.70;;
20375;SDS011;10347;51.828;6.466;2022-07-25T12:35:25;2.83;;;1.50;;
20375;SDS011;10347;51.828;6.466;2022-07-25T12:37:51;3.85;;;1.55;;
20375;SDS011;10347;51.828;6.466;2022-07-25T12:40:18;1.38;;;1.27;;
20375;SDS011;10347;51.828;6.466;2022-07-25T12:42:44;4.07;;;1.38;;
20375;SDS011;10347;51.828;6.466;2022-07-25T12:45:10;2.30;;;1.50;;
20375;SDS011;10347;51.828;6.466;2022-07-25T12:47:37;1.60;;;1.50;;
20375;SDS011;10347;51.828;6.466;2022-07-25T12:50:03;2.03;;;1.33;;
20375;SDS011;10347;51.828;6.466;2022-07-25T12:52:29;4.32;;;1.92;;
20375;SDS011;10347;51.828;6.466;2022-07-25T12:54:55;2.30;;;1.52;;
20375;SDS011;10347;51.828;6.466;2022-07-25T12:57:21;8.32;;;1.73;;
20375;SDS011;10347;51.828;6.466;2022-07-25T12:59:47;3.47;;;1.50;;
20375;SDS011;10347;51.828;6.466;2022-07-25T13:02:12;3.35;;;1.55;;
20375;SDS011;10347;51.828;6.466;2022-07-25T13:04:38;5.28;;;2.10;;
20375;SDS011;10347;51.828;6.466;2022-07-25T13:07:04;7.95;;;2.15;;
20375;SDS011;10347;51.828;6.466;2022-07-25T13:09:30;3.35;;;1.60;;
20375;SDS011;10347;51.828;6.466;2022-07-25T13:11:55;5.68;;;1.85;;
20375;SDS011;10347;51.828;6.466;2022-07-25T13:14:22;5.10;;;2.03;;
20375;SDS011;10347;51.828;6.466;2022-07-25T13:16:48;2.30;;;1.60;;
20375;SDS011;10347;51.828;6.466;2022-07-25T13:19:14;3.92;;;1.67;;
20375;SDS011;10347;51.828;6.466;2022-07-25T13:21:40;3.30;;;1.50;;
20375;SDS011;10347;51.828;6.466;2022-07-25T13:24:06;4.70;;;2.22;;
20375;SDS011;10347;51.828;6.466;2022-07-25T13:26:33;3.30;;;1.75;;
20375;SDS011;10347;51.828;6.466;2022-07-25T13:28:59;3.72;;;2.10;;
20375;SDS011;10347;51.828;6.466;2022-07-25T13:31:25;5.18;;;2.35;;
20375;SDS011;10347;51.828;6.466;2022-07-25T13:33:51;1.92;;;1.45;;
20375;SDS011;10347;51.828;6.466;2022-07-25T13:36:17;3.75;;;1.95;;
20375;SDS011;10347;51.828;6.466;2022-07-25T13:38:43;4.72;;;2.10;;
20375;SDS011;10347;51.828;6.466;2022-07-25T13:41:10;4.82;;;2.28;;
20375;SDS011;10347;51.828;6.466;2022-07-25T13:43:36;3.28;;;2.25;;
20375;SDS011;10347;51.828;6.466;2022-07-25T13:46:02;4.18;;;2.20;;
20375;SDS011;10347;51.828;6.466;2022-07-25T13:48:28;2.47;;;2.20;;
20375;SDS011;10347;51.828;6.466;2022-07-25T13:50:55;3.53;;;2.00;;
20375;SDS011;10347;51.828;6.466;2022-07-25T13:53:21;2.33;;;2.13;;
20375;SDS011;10347;51.828;6.466;2022-07-25T13:55:47;5.07;;;2.40;;
20375;SDS011;10347;51.828;6.466;2022-07-25T13:58:13;4.53;;;2.22;;
20375;SDS011;10347;51.828;6.466;2022-07-25T14:00:39;8.45;;;3.17;;
20375;SDS011;10347;51.828;6.466;2022-07-25T14:03:05;5.18;;;3.25;;
20375;SDS011;10347;51.828;6.466;2022-07-25T14:05:31;4.38;;;3.20;;
20375;SDS011;10347;51.828;6.466;2022-07-25T14:07:58;5.05;;;3.08;;
20375;SDS011;10347;51.828;6.466;2022-07-25T14:10:24;7.75;;;3.17;;
20375;SDS011;10347;51.828;6.466;2022-07-25T14:12:50;8.73;;;2.88;;
20375;SDS011;10347;51.828;6.466;2022-07-25T14:15:16;7.40;;;2.47;;
20375;SDS011;10347;51.828;6.466;2022-07-25T14:17:42;8.57;;;3.22;;
20375;SDS011;10347;51.828;6.466;2022-07-25T14:20:08;10.88;;;5.53;;
20375;SDS011;10347;51.828;6.466;2022-07-25T14:22:34;5.72;;;3.22;;
20375;SDS011;10347;51.828;6.466;2022-07-25T14:25:00;5.60;;;3.08;;
20375;SDS011;10347;51.828;6.466;2022-07-25T14:27:27;5.28;;;2.50;;
20375;SDS011;10347;51.828;6.466;2022-07-25T14:29:53;6.15;;;2.63;;
20375;SDS011;10347;51.828;6.466;2022-07-25T14:32:18;4.57;;;2.25;;
20375;SDS011;10347;51.828;6.466;2022-07-25T14:34:44;6.72;;;2.80;;
20375;SDS011;10347;51.828;6.466;2022-07-25T14:37:11;6.18;;;2.20;;
20375;SDS011;10347;51.828;6.466;2022-07-25T14:39:37;5.55;;;2.08;;
20375;SDS011;10347;51.828;6.466;2022-07-25T14:42:03;5.10;;;2.50;;
20375;SDS011;10347;51.828;6.466;2022-07-25T14:44:29;8.82;;;2.17;;
20375;SDS011;10347;51.828;6.466;2022-07-25T14:46:54;4.07;;;2.17;;
20375;SDS011;10347;51.828;6.466;2022-07-25T14:49:21;5.13;;;2.20;;
20375;SDS011;10347;51.828;6.466;2022-07-25T14:51:47;3.95;;;1.75;;
20375;SDS011;10347;51.828;6.466;2022-07-25T14:54:13;4.00;;;1.88;;
20375;SDS011;10347;51.828;6.466;2022-07-25T14:56:40;3.70;;;1.80;;
20375;SDS011;10347;51.828;6.466;2022-07-25T14:59:06;4.18;;;1.70;;
20375;SDS011;10347;51.828;6.466;2022-07-25T15:01:32;2.55;;;1.75;;
20375;SDS011;10347;51.828;6.466;2022-07-25T15:03:58;3.88;;;1.88;;
20375;SDS011;10347;51.828;6.466;2022-07-25T15:06:24;1.83;;;1.60;;
20375;SDS011;10347;51.828;6.466;2022-07-25T15:08:51;8.07;;;2.10;;